createdAt,value
2022-12-11T00:00:45.290Z,20.67
2022-12-11T00:03:15.908Z,19.87
2022-12-11T00:05:43.968Z,20.30
2022-12-11T00:08:11.455Z,19.63
2022-12-11T00:10:38.642Z,18.37
2022-12-11T00:13:05.788Z,19.60
2022-12-11T00:15:32.924Z,21.37
2022-12-11T00:17:59.780Z,20.13
2022-12-11T00:20:27.167Z,18.80
2022-12-11T00:22:53.906Z,18.87
2022-12-11T00:25:20.696Z,20.20
2022-12-11T00:27:47.554Z,20.70
2022-12-11T00:30:15.098Z,20.97
2022-12-11T00:32:43.125Z,19.83
2022-12-11T00:35:10.478Z,18.10
2022-12-11T00:37:37.489Z,21.33
2022-12-11T00:40:04.558Z,19.30
2022-12-11T00:42:31.291Z,20.53
2022-12-11T00:44:58.053Z,19.83
2022-12-11T00:47:24.837Z,20.93
2022-12-11T00:49:51.514Z,20.27
2022-12-11T00:52:18.321Z,19.40
2022-12-11T00:54:45.436Z,19.93
2022-12-11T00:57:12.347Z,20.30
2022-12-11T00:59:39.278Z,18.67
2022-12-11T01:02:05.986Z,20.33
2022-12-11T01:04:35.405Z,18.43
2022-12-11T01:07:02.230Z,20.37
2022-12-11T01:09:47.604Z,20.07
2022-12-11T01:12:14.370Z,18.03
2022-12-11T01:14:41.292Z,19.80
2022-12-11T01:17:08.050Z,20.20
2022-12-11T01:19:34.795Z,19.93
2022-12-11T01:22:01.612Z,18.43
2022-12-11T01:24:28.557Z,20.10
2022-12-11T01:26:55.324Z,17.77
2022-12-11T01:29:22.136Z,18.23
2022-12-11T01:31:48.809Z,19.53
2022-12-11T01:34:15.536Z,19.20
2022-12-11T01:36:42.250Z,19.80
2022-12-11T01:39:09.287Z,19.37
2022-12-11T01:41:36.272Z,19.77
2022-12-11T01:44:28.954Z,18.53
2022-12-11T01:46:55.904Z,19.50
2022-12-11T01:49:26.185Z,18.50
2022-12-11T01:51:55.769Z,18.97
2022-12-11T01:54:24.743Z,18.87
2022-12-11T01:56:53.803Z,17.43
2022-12-11T01:59:25.107Z,19.73
2022-12-11T02:02:11.161Z,18.33
2022-12-11T02:04:40.350Z,17.60
2022-12-11T02:07:07.161Z,18.47
2022-12-11T02:09:36.462Z,18.33
2022-12-11T02:12:23.587Z,17.77
2022-12-11T02:15:08.556Z,17.73
2022-12-11T02:17:48.903Z,17.03
2022-12-11T02:20:38.908Z,18.27
2022-12-11T02:23:19.090Z,16.60
2022-12-11T02:25:51.791Z,16.60
2022-12-11T02:28:25.935Z,17.20
2022-12-11T02:31:18.603Z,16.67
2022-12-11T02:33:56.321Z,17.77
2022-12-11T02:36:26.394Z,17.47
2022-12-11T02:38:56.591Z,17.07
2022-12-11T02:41:24.788Z,18.13
2022-12-11T02:43:53.166Z,15.37
2022-12-11T02:46:21.784Z,16.90
2022-12-11T02:48:51.148Z,16.87
2022-12-11T02:51:24.549Z,18.07
2022-12-11T02:53:56.603Z,16.77
2022-12-11T02:56:30.749Z,17.13
2022-12-11T02:59:03.721Z,15.87
2022-12-11T03:01:30.776Z,16.33
2022-12-11T03:03:58.440Z,17.50
2022-12-11T03:06:32.213Z,16.60
2022-12-11T03:08:59.069Z,16.13
2022-12-11T03:11:25.825Z,16.40
2022-12-11T03:13:53.647Z,17.20
2022-12-11T03:16:23.292Z,16.70
2022-12-11T03:18:58.165Z,16.23
2022-12-11T03:21:34.872Z,16.93
2022-12-11T03:24:20.348Z,15.87
2022-12-11T03:26:57.795Z,15.73
2022-12-11T03:29:53.984Z,15.10
2022-12-11T03:32:25.096Z,17.20
2022-12-11T03:34:58.563Z,15.80
2022-12-11T03:37:28.772Z,15.07
2022-12-11T03:39:59.459Z,16.33
2022-12-11T03:42:27.552Z,14.70
2022-12-11T03:44:56.928Z,15.77
2022-12-11T03:47:25.873Z,15.83
2022-12-11T03:49:53.684Z,15.37
2022-12-11T03:52:21.961Z,14.27
2022-12-11T03:54:50.830Z,13.37
2022-12-11T03:57:22.511Z,13.87
2022-12-11T03:59:50.798Z,14.27
2022-12-11T04:02:17.553Z,13.30
2022-12-11T04:04:44.314Z,13.27
2022-12-11T04:07:11.154Z,12.90
2022-12-11T04:09:37.930Z,13.00
2022-12-11T04:12:04.852Z,12.07
2022-12-11T04:14:50.571Z,12.50
2022-12-11T04:17:37.408Z,13.17
2022-12-11T04:20:24.294Z,12.63
2022-12-11T04:23:09.875Z,12.80
2022-12-11T04:25:37.127Z,12.60
2022-12-11T04:28:03.970Z,12.73
2022-12-11T04:30:34.118Z,13.07
2022-12-11T04:33:01.720Z,13.33
2022-12-11T04:35:29.020Z,12.30
2022-12-11T04:37:55.991Z,13.27
2022-12-11T04:40:23.025Z,12.10
2022-12-11T04:42:49.834Z,12.40
2022-12-11T04:45:16.799Z,11.93
2022-12-11T04:47:43.552Z,12.10
2022-12-11T04:50:12.010Z,11.67
2022-12-11T04:52:39.168Z,12.67
2022-12-11T04:55:07.887Z,12.13
2022-12-11T04:57:34.913Z,11.50
2022-12-11T05:00:02.184Z,11.47
2022-12-11T05:02:29.030Z,11.47
2022-12-11T05:04:55.837Z,10.40
2022-12-11T05:07:22.579Z,11.80
2022-12-11T05:09:49.399Z,11.67
2022-12-11T05:12:16.156Z,10.60
2022-12-11T05:14:42.895Z,11.57
2022-12-11T05:17:09.587Z,11.63
2022-12-11T05:19:36.294Z,11.50
2022-12-11T05:22:03.030Z,13.07
2022-12-11T05:24:29.766Z,12.57
2022-12-11T05:26:56.493Z,12.03
2022-12-11T05:29:23.273Z,12.57
2022-12-11T05:31:50.063Z,12.07
2022-12-11T05:34:16.903Z,13.03
2022-12-11T05:36:43.630Z,13.23
2022-12-11T05:39:11.438Z,12.17
2022-12-11T05:41:38.355Z,13.47
2022-12-11T05:44:05.727Z,12.53
2022-12-11T05:46:32.769Z,12.60
2022-12-11T05:49:01.442Z,12.87
2022-12-11T05:51:29.739Z,12.60
2022-12-11T05:53:57.919Z,13.50
2022-12-11T05:56:27.345Z,12.87
2022-12-11T05:58:54.951Z,12.07
2022-12-11T06:01:25.384Z,12.47
2022-12-11T06:03:54.366Z,11.73
2022-12-11T06:06:21.519Z,12.17
2022-12-11T06:08:52.589Z,11.70
2022-12-11T06:11:23.905Z,13.20
2022-12-11T06:13:52.111Z,12.70
2022-12-11T06:16:20.044Z,10.70
2022-12-11T06:18:47.347Z,9.77
2022-12-11T06:21:25.454Z,11.93
2022-12-11T06:23:54.300Z,9.77
2022-12-11T06:26:22.001Z,10.27
2022-12-11T06:28:49.513Z,10.53
2022-12-11T06:31:16.672Z,9.97
2022-12-11T06:33:43.807Z,9.63
2022-12-11T06:36:16.493Z,10.27
2022-12-11T06:38:43.856Z,10.10
2022-12-11T06:41:11.314Z,9.60
2022-12-11T06:43:40.216Z,10.00
2022-12-11T06:46:15.712Z,9.87
2022-12-11T06:48:43.541Z,10.50
2022-12-11T06:51:12.617Z,10.00
2022-12-11T06:53:40.478Z,11.07
2022-12-11T06:56:10.735Z,9.93
2022-12-11T06:58:38.245Z,10.20
2022-12-11T07:01:13.703Z,10.93
2022-12-11T07:03:40.499Z,11.10
2022-12-11T07:06:07.575Z,11.63
2022-12-11T07:08:34.861Z,10.40
2022-12-11T07:11:11.341Z,10.27
2022-12-11T07:13:38.650Z,10.40
2022-12-11T07:16:10.703Z,10.07
2022-12-11T07:18:40.322Z,11.87
2022-12-11T07:21:08.051Z,11.30
2022-12-11T07:23:35.836Z,10.87
2022-12-11T07:26:10.934Z,10.97
2022-12-11T07:28:38.145Z,10.97
2022-12-11T07:31:09.713Z,9.77
2022-12-11T07:33:36.848Z,10.37
2022-12-11T07:36:05.932Z,10.80
2022-12-11T07:38:33.013Z,9.83
2022-12-11T07:41:05.298Z,10.00
2022-12-11T07:43:36.021Z,9.97
2022-12-11T07:46:08.730Z,8.73
2022-12-11T07:48:36.626Z,9.37
2022-12-11T07:51:17.255Z,9.07
2022-12-11T07:53:45.265Z,8.80
2022-12-11T07:56:12.245Z,9.27
2022-12-11T07:58:39.095Z,9.57
2022-12-11T08:01:10.654Z,9.27
2022-12-11T08:03:37.409Z,9.37
2022-12-11T08:06:04.409Z,9.17
2022-12-11T08:08:31.337Z,8.40
2022-12-11T08:11:01.911Z,8.17
2022-12-11T08:13:28.692Z,6.87
2022-12-11T08:15:55.374Z,8.70
2022-12-11T08:18:22.225Z,9.53
2022-12-11T08:20:49.174Z,8.70
2022-12-11T08:23:16.021Z,9.00
2022-12-11T08:25:42.802Z,9.40
2022-12-11T08:28:09.578Z,8.57
2022-12-11T08:30:39.048Z,9.60
2022-12-11T08:33:06.566Z,8.80
2022-12-11T08:35:33.378Z,8.57
2022-12-11T08:38:00.131Z,9.30
2022-12-11T08:40:26.884Z,9.07
2022-12-11T08:42:53.810Z,8.47
2022-12-11T08:45:20.521Z,9.30
2022-12-11T08:47:47.251Z,8.33
2022-12-11T08:50:14.049Z,8.23
2022-12-11T08:52:40.743Z,9.63
2022-12-11T08:55:07.888Z,10.03
2022-12-11T08:57:34.758Z,9.93
2022-12-11T09:00:01.477Z,9.80
2022-12-11T09:02:28.312Z,9.17
2022-12-11T09:04:55.089Z,9.87
2022-12-11T09:07:21.898Z,9.63
2022-12-11T09:09:48.738Z,9.10
2022-12-11T09:12:15.536Z,9.50
2022-12-11T09:14:42.311Z,9.57
2022-12-11T09:17:09.165Z,9.70
2022-12-11T09:19:35.846Z,10.03
2022-12-11T09:22:02.644Z,10.03
2022-12-11T09:24:29.416Z,9.87
2022-12-11T09:26:56.227Z,8.70
2022-12-11T09:29:23.004Z,8.97
2022-12-11T09:31:49.953Z,9.80
2022-12-11T09:34:16.750Z,9.27
2022-12-11T09:36:44.292Z,10.27
2022-12-11T09:39:13.596Z,9.73
2022-12-11T09:41:52.247Z,10.70
2022-12-11T09:44:30.184Z,9.20
2022-12-11T09:46:58.456Z,9.90
2022-12-11T09:49:37.772Z,10.10
2022-12-11T09:52:12.597Z,10.57
2022-12-11T09:54:51.185Z,10.40
2022-12-11T09:57:31.839Z,10.43
2022-12-11T10:00:12.166Z,10.80
2022-12-11T10:03:06.934Z,10.93
2022-12-11T10:05:52.423Z,10.03
2022-12-11T10:08:40.406Z,10.00
2022-12-11T10:11:28.357Z,10.20
2022-12-11T10:14:18.757Z,10.43
2022-12-11T10:16:52.652Z,9.70
2022-12-11T10:19:25.771Z,9.77
2022-12-11T10:21:53.107Z,10.47
2022-12-11T10:27:35.845Z,10.50
2022-12-11T10:30:23.217Z,10.23
2022-12-11T10:33:23.448Z,10.90
2022-12-11T10:35:53.249Z,10.23
2022-12-11T10:38:29.160Z,10.97
2022-12-11T10:41:02.356Z,10.67
2022-12-11T10:43:41.360Z,11.10
2022-12-11T10:46:16.620Z,12.20
2022-12-11T10:48:53.400Z,12.33
2022-12-11T10:51:31.033Z,11.57
2022-12-11T10:54:07.522Z,12.33
2022-12-11T10:56:37.447Z,11.27
2022-12-11T10:59:04.659Z,13.63
2022-12-11T11:01:32.516Z,12.50
2022-12-11T11:04:33.279Z,12.40
2022-12-11T11:07:21.074Z,12.77
2022-12-11T11:09:48.623Z,13.17
2022-12-11T11:12:27.155Z,13.10
2022-12-11T11:15:13.706Z,12.70
2022-12-11T11:17:55.047Z,12.93
2022-12-11T11:20:25.677Z,13.43
2022-12-11T11:22:59.479Z,14.03
2022-12-11T11:25:32.637Z,13.37
2022-12-11T11:28:07.846Z,13.67
2022-12-11T11:30:41.115Z,13.77
2022-12-11T11:33:17.691Z,14.30
2022-12-11T11:36:03.942Z,13.80
2022-12-11T11:38:46.480Z,15.83
2022-12-11T11:41:31.667Z,14.10
2022-12-11T11:44:02.438Z,13.07
2022-12-11T11:46:55.826Z,13.23
2022-12-11T11:49:45.742Z,15.23
2022-12-11T11:52:19.349Z,14.03
2022-12-11T11:55:16.229Z,14.67
2022-12-11T11:57:52.951Z,13.17
2022-12-11T12:00:33.325Z,14.13
2022-12-11T12:03:09.648Z,15.13
2022-12-11T12:06:14.759Z,13.17
2022-12-11T12:08:50.501Z,13.13
2022-12-11T12:11:40.638Z,15.00
2022-12-11T12:14:43.589Z,14.17
2022-12-11T12:17:09.088Z,12.17
2022-12-11T12:19:58.739Z,13.97
2022-12-11T12:22:47.136Z,11.77
2022-12-11T12:25:19.960Z,13.10
2022-12-11T12:27:59.556Z,13.50
2022-12-11T12:30:32.211Z,12.47
2022-12-11T12:33:23.587Z,11.50
2022-12-11T12:35:55.874Z,13.53
2022-12-11T12:39:11.467Z,12.00
2022-12-11T12:42:07.330Z,11.33
2022-12-11T12:45:09.116Z,12.63
2022-12-11T12:47:36.789Z,12.40
2022-12-11T12:50:10.415Z,12.10
2022-12-11T12:52:39.613Z,12.57
2022-12-11T12:55:22.882Z,10.53
2022-12-11T12:57:56.162Z,12.63
2022-12-11T13:00:43.716Z,12.47
2022-12-11T13:03:20.395Z,11.40
2022-12-11T13:06:06.225Z,12.03
2022-12-11T13:08:46.876Z,10.83
2022-12-11T13:11:17.577Z,11.50
2022-12-11T13:14:02.743Z,10.00
2022-12-11T13:16:44.723Z,11.13
2022-12-11T13:19:23.191Z,11.10
2022-12-11T13:22:14.732Z,11.13
2022-12-11T13:24:49.612Z,10.53
2022-12-11T13:27:34.920Z,10.23
2022-12-11T13:30:21.841Z,10.97
2022-12-11T13:33:17.788Z,10.17
2022-12-11T13:35:45.311Z,9.03
2022-12-11T13:38:22.368Z,9.50
2022-12-11T13:40:55.852Z,9.20
2022-12-11T13:43:24.686Z,9.60
2022-12-11T13:45:55.826Z,9.37
2022-12-11T13:48:47.591Z,8.83
2022-12-11T13:51:18.446Z,8.47
2022-12-11T13:53:45.528Z,8.23
2022-12-11T13:56:21.579Z,8.27
2022-12-11T13:58:48.565Z,8.70
2022-12-11T14:01:31.598Z,7.93
2022-12-11T14:04:11.713Z,8.23
2022-12-11T14:06:39.777Z,8.17
2022-12-11T14:09:08.242Z,9.67
2022-12-11T14:11:38.517Z,8.27
2022-12-11T14:14:16.205Z,9.87
2022-12-11T14:16:43.050Z,8.73
2022-12-11T14:19:11.027Z,8.70
2022-12-11T14:21:38.161Z,8.37
2022-12-11T14:24:06.639Z,8.90
2022-12-11T14:26:35.407Z,8.40
2022-12-11T14:29:02.939Z,9.37
2022-12-11T14:31:44.470Z,9.23
2022-12-11T14:34:15.819Z,7.67
2022-12-11T14:36:43.813Z,8.70
2022-12-11T14:39:16.044Z,8.93
2022-12-11T14:42:10.440Z,8.70
2022-12-11T14:44:47.018Z,8.43
2022-12-11T14:47:19.883Z,8.60
2022-12-11T14:50:01.553Z,8.10
2022-12-11T14:52:36.656Z,8.83
2022-12-11T14:55:10.593Z,7.97
2022-12-11T14:57:41.117Z,9.17
2022-12-11T15:00:08.699Z,8.80
2022-12-11T15:02:37.044Z,8.10
2022-12-11T15:05:18.256Z,9.07
2022-12-11T15:08:08.291Z,7.73
2022-12-11T15:10:36.715Z,7.73
2022-12-11T15:13:09.070Z,7.83
2022-12-11T15:15:45.589Z,8.27
2022-12-11T15:18:26.925Z,8.20
2022-12-11T15:20:59.938Z,8.00
2022-12-11T15:23:27.902Z,8.07
2022-12-11T15:25:57.914Z,8.87
2022-12-11T15:28:27.514Z,8.63
2022-12-11T15:31:27.759Z,8.63
2022-12-11T15:33:55.378Z,8.90
2022-12-11T15:36:26.641Z,8.70
2022-12-11T15:38:53.393Z,8.40
2022-12-11T15:41:21.491Z,8.03
2022-12-11T15:43:48.399Z,9.20
2022-12-11T15:46:15.146Z,8.60
2022-12-11T15:48:41.986Z,9.40
2022-12-11T15:51:10.097Z,7.50
2022-12-11T15:53:37.219Z,8.50
2022-12-11T15:56:04.061Z,8.60
2022-12-11T15:58:30.971Z,8.70
2022-12-11T16:00:57.915Z,8.93
2022-12-11T16:03:24.978Z,8.83
2022-12-11T16:05:53.085Z,8.53
2022-12-11T16:08:22.678Z,8.67
2022-12-11T16:10:52.453Z,9.00
2022-12-11T16:13:19.583Z,9.00
2022-12-11T16:15:49.836Z,9.70
2022-12-11T16:18:19.754Z,9.40
2022-12-11T16:20:47.449Z,9.27
2022-12-11T16:23:14.984Z,10.17
2022-12-11T16:25:43.407Z,10.83
2022-12-11T16:28:12.405Z,9.93
2022-12-11T16:30:39.450Z,9.23
2022-12-11T16:33:12.099Z,8.97
2022-12-11T16:35:39.924Z,8.67
2022-12-11T16:38:07.797Z,8.93
2022-12-11T16:40:34.635Z,9.00
2022-12-11T16:43:02.808Z,8.07
2022-12-11T16:45:29.606Z,9.03
2022-12-11T16:47:56.400Z,8.87
2022-12-11T16:50:23.691Z,8.93
2022-12-11T16:52:50.495Z,9.50
2022-12-11T16:55:21.112Z,9.30
2022-12-11T16:57:48.084Z,8.57
2022-12-11T17:00:15.452Z,9.07
2022-12-11T17:02:42.384Z,9.83
2022-12-11T17:05:09.303Z,10.03
2022-12-11T17:07:36.208Z,9.97
2022-12-11T17:10:03.262Z,9.17
2022-12-11T17:12:30.679Z,9.37
2022-12-11T17:14:57.849Z,8.73
2022-12-11T17:17:24.940Z,9.60
2022-12-11T17:19:51.813Z,9.60
2022-12-11T17:22:18.585Z,8.70
2022-12-11T17:24:45.416Z,8.70
2022-12-11T17:27:12.150Z,9.33
2022-12-11T17:29:38.910Z,9.20
2022-12-11T17:32:05.922Z,9.83
2022-12-11T17:34:37.868Z,9.97
2022-12-11T17:37:05.893Z,9.87
2022-12-11T17:39:33.097Z,9.63
2022-12-11T17:42:00.055Z,9.40
2022-12-11T17:44:30.410Z,9.03
2022-12-11T17:46:58.875Z,9.97
2022-12-11T17:49:25.871Z,10.13
2022-12-11T17:51:55.206Z,10.57
2022-12-11T17:54:23.652Z,10.33
2022-12-11T17:56:51.098Z,9.83
2022-12-11T17:59:17.938Z,10.87
2022-12-11T18:01:44.762Z,10.00
2022-12-11T18:04:12.082Z,9.50
2022-12-11T18:06:38.951Z,10.70
2022-12-11T18:09:06.214Z,10.80
2022-12-11T18:11:33.150Z,9.80
2022-12-11T18:14:00.084Z,10.80
2022-12-11T18:16:30.690Z,10.63
2022-12-11T18:18:57.613Z,10.13
2022-12-11T18:21:28.134Z,9.10
2022-12-11T18:23:55.664Z,9.03
2022-12-11T18:26:22.794Z,10.20
2022-12-11T18:28:50.714Z,9.27
2022-12-11T18:31:18.890Z,8.97
2022-12-11T18:33:46.710Z,8.17
2022-12-11T18:36:15.304Z,8.57
2022-12-11T18:38:42.915Z,7.93
2022-12-11T18:41:12.229Z,8.80
2022-12-11T18:43:39.590Z,8.23
2022-12-11T18:46:10.902Z,9.10
2022-12-11T18:48:37.978Z,8.80
2022-12-11T18:51:10.259Z,8.97
2022-12-11T18:53:39.120Z,8.83
2022-12-11T18:56:08.912Z,9.50
2022-12-11T18:58:35.842Z,8.57
2022-12-11T19:01:07.995Z,8.77
2022-12-11T19:03:34.974Z,8.33
2022-12-11T19:06:11.169Z,9.20
2022-12-11T19:08:38.232Z,8.53
2022-12-11T19:11:05.331Z,8.63
2022-12-11T19:13:32.721Z,9.90
2022-12-11T19:15:59.692Z,9.40
2022-12-11T19:18:26.825Z,9.20
2022-12-11T19:21:04.679Z,8.83
2022-12-11T19:23:35.187Z,9.37
2022-12-11T19:26:02.400Z,9.20
2022-12-11T19:28:29.550Z,9.60
2022-12-11T19:30:56.389Z,8.90
2022-12-11T19:33:23.250Z,8.33
2022-12-11T19:35:50.080Z,8.57
2022-12-11T19:38:16.961Z,8.93
2022-12-11T19:40:44.720Z,9.77
2022-12-11T19:43:11.985Z,8.53
2022-12-11T19:45:38.980Z,9.27
2022-12-11T19:48:06.205Z,9.43
2022-12-11T19:50:35.903Z,9.30
2022-12-11T19:53:03.453Z,10.27
2022-12-11T19:55:30.292Z,10.93
2022-12-11T19:57:57.047Z,9.63
2022-12-11T20:00:24.720Z,9.07
2022-12-11T20:02:51.762Z,9.13
2022-12-11T20:05:18.745Z,8.03
2022-12-11T20:07:45.596Z,9.50
2022-12-11T20:10:12.628Z,9.07
2022-12-11T20:12:39.369Z,8.30
2022-12-11T20:15:06.460Z,8.87
2022-12-11T20:17:33.507Z,9.67
2022-12-11T20:20:00.557Z,9.57
2022-12-11T20:22:27.426Z,9.20
2022-12-11T20:24:54.343Z,9.73
2022-12-11T20:27:21.193Z,9.63
2022-12-11T20:29:48.089Z,9.97
2022-12-11T20:32:14.946Z,10.17
2022-12-11T20:34:42.125Z,10.57
2022-12-11T20:37:09.175Z,9.87
2022-12-11T20:39:36.763Z,9.63
2022-12-11T20:42:05.049Z,9.17
2022-12-11T20:44:32.506Z,9.83
2022-12-11T20:46:59.309Z,11.43
2022-12-11T20:49:26.308Z,9.77
2022-12-11T20:51:53.630Z,11.70
2022-12-11T20:54:20.516Z,10.73
2022-12-11T20:56:47.801Z,11.03
2022-12-11T20:59:14.586Z,10.03
2022-12-11T21:01:41.440Z,11.10
2022-12-11T21:04:08.557Z,10.83
2022-12-11T21:06:37.049Z,11.63
2022-12-11T21:09:10.929Z,11.80
2022-12-11T21:11:37.780Z,11.53
2022-12-11T21:14:04.789Z,12.20
2022-12-11T21:16:32.196Z,11.73
2022-12-11T21:18:59.337Z,12.00
2022-12-11T21:21:26.679Z,11.17
2022-12-11T21:23:53.552Z,11.87
2022-12-11T21:26:20.419Z,11.17
2022-12-11T21:28:47.422Z,12.13
2022-12-11T21:31:16.987Z,11.30
2022-12-11T21:33:44.668Z,11.90
2022-12-11T21:36:13.478Z,11.57
2022-12-11T21:38:42.138Z,11.70
2022-12-11T21:41:13.717Z,11.63
2022-12-11T21:44:00.427Z,11.80
2022-12-11T21:46:28.944Z,11.80
2022-12-11T21:48:56.019Z,11.03
2022-12-11T21:51:32.581Z,11.97
2022-12-11T21:54:05.273Z,11.40
2022-12-11T21:56:32.467Z,11.90
2022-12-11T21:59:01.317Z,12.40
2022-12-11T22:01:35.261Z,10.63
2022-12-11T22:04:04.947Z,11.63
2022-12-11T22:06:31.790Z,11.07
2022-12-11T22:08:58.608Z,11.50
2022-12-11T22:11:29.818Z,11.90
2022-12-11T22:13:57.014Z,11.87
2022-12-11T22:16:24.266Z,12.10
2022-12-11T22:18:51.480Z,11.27
2022-12-11T22:21:19.326Z,11.03
2022-12-11T22:23:46.502Z,10.60
2022-12-11T22:26:19.532Z,11.17
2022-12-11T22:28:46.436Z,11.97
2022-12-11T22:31:15.109Z,12.23
2022-12-11T22:33:42.095Z,11.07
2022-12-11T22:36:10.597Z,11.30
2022-12-11T22:38:37.707Z,11.13
2022-12-11T22:41:21.858Z,12.37
2022-12-11T22:43:49.156Z,10.97
2022-12-11T22:46:21.255Z,12.20
2022-12-11T22:48:48.142Z,10.80
2022-12-11T22:51:15.441Z,11.23
2022-12-11T22:53:42.782Z,12.47
2022-12-11T22:56:12.332Z,11.33
2022-12-11T22:58:39.471Z,13.03
2022-12-11T23:01:15.367Z,11.73
2022-12-11T23:03:42.225Z,11.50
2022-12-11T23:06:11.693Z,11.63
2022-12-11T23:08:40.419Z,12.97
2022-12-11T23:11:19.148Z,11.70
2022-12-11T23:13:46.031Z,11.87
2022-12-11T23:16:12.924Z,12.70
2022-12-11T23:18:39.744Z,11.70
2022-12-11T23:21:07.697Z,12.20
2022-12-11T23:23:34.982Z,12.73
2022-12-11T23:26:01.931Z,12.23
2022-12-11T23:28:28.678Z,11.37
2022-12-11T23:30:55.607Z,11.03
2022-12-11T23:33:22.418Z,11.43
2022-12-11T23:35:49.184Z,11.73
2022-12-11T23:38:16.854Z,12.07
2022-12-11T23:40:43.764Z,11.40
2022-12-11T23:43:10.559Z,11.67
2022-12-11T23:45:37.453Z,11.50
2022-12-11T23:48:04.420Z,11.83
2022-12-11T23:50:32.980Z,11.40
2022-12-11T23:53:00.358Z,11.60
2022-12-11T23:55:27.698Z,12.83
2022-12-11T23:57:54.980Z,12.73
